Time;durP1;ratioP1;P1;durP2;ratioP2;P2;SDS_P1;SDS_P2;PMS_P1;PMS_P2;Temp;Humidity;BMP_temperature;BMP_pressure;BME280_temperature;BME280_humidity;BME280_pressure;Samples;Min_cycle;Max_cycle;Signal;HPM_P1;HPM_P2
2022/02/24 00:00:50;;;;;;;9.23;5.95;;;3.00;1.00;;;;;;5056038;28;20228;-82
2022/02/24 00:03:16;;;;;;;13.38;5.60;;;3.00;1.00;;;;;;5055232;28;20770;-84
2022/02/24 00:05:43;;;;;;;7.70;5.07;;;2.90;1.00;;;;;;5051754;28;20329;-83
2022/02/24 00:08:12;;;;;;;9.27;6.03;;;2.90;1.00;;;;;;5052418;28;20923;-83
2022/02/24 00:10:40;;;;;;;12.20;5.90;;;2.80;1.00;;;;;;5051946;28;20264;-82
2022/02/24 00:13:06;;;;;;;10.93;5.70;;;2.80;1.00;;;;;;5050613;28;20719;-84
2022/02/24 00:15:35;;;;;;;11.43;5.90;;;2.80;1.00;;;;;;5047196;28;20243;-83
2022/02/24 00:18:04;;;;;;;9.25;5.03;;;2.70;1.00;;;;;;5079961;28;20719;-81
2022/02/24 00:20:31;;;;;;;10.20;5.50;;;2.70;1.00;;;;;;5083675;28;20232;-81
2022/02/24 00:22:58;;;;;;;5.60;4.75;;;2.60;1.00;;;;;;5073820;28;20214;-81
2022/02/24 00:25:24;;;;;;;9.48;5.13;;;2.60;1.00;;;;;;5066919;28;20225;-83
2022/02/24 00:27:52;;;;;;;9.00;5.38;;;2.60;1.00;;;;;;5073032;28;20229;-84
2022/02/24 00:30:19;;;;;;;8.85;4.90;;;2.60;1.00;;;;;;5072497;28;20539;-85
2022/02/24 00:32:46;;;;;;;7.70;4.90;;;2.50;1.00;;;;;;5058898;28;20229;-85
2022/02/24 00:35:13;;;;;;;7.50;5.50;;;2.50;1.00;;;;;;5056966;28;20224;-85
2022/02/24 00:37:40;;;;;;;10.65;5.50;;;2.60;1.00;;;;;;5037707;28;20317;-85
2022/02/24 00:40:08;;;;;;;9.60;5.03;;;2.60;1.00;;;;;;5060067;28;20236;-84
2022/02/24 00:42:34;;;;;;;6.70;5.15;;;2.60;1.00;;;;;;5049593;28;20228;-85
2022/02/24 00:45:03;;;;;;;8.05;5.32;;;2.60;1.00;;;;;;5056723;28;20216;-85
2022/02/24 00:47:30;;;;;;;9.13;5.63;;;2.60;1.00;;;;;;5036026;28;20263;-85
2022/02/24 00:49:57;;;;;;;10.32;5.15;;;2.60;1.00;;;;;;5074904;28;20225;-84
2022/02/24 00:52:23;;;;;;;9.85;4.70;;;2.60;1.00;;;;;;5053659;28;20228;-85
2022/02/24 00:54:50;;;;;;;9.25;4.82;;;2.50;1.00;;;;;;5052430;28;20229;-86
2022/02/24 00:57:17;;;;;;;8.55;4.80;;;2.50;1.00;;;;;;5057059;28;20217;-86
2022/02/24 00:59:43;;;;;;;9.88;5.72;;;2.50;1.00;;;;;;5033543;28;20682;-86
2022/02/24 01:02:11;;;;;;;6.72;5.38;;;2.50;1.00;;;;;;5054500;28;20229;-85
2022/02/24 01:04:38;;;;;;;8.27;5.88;;;2.50;1.00;;;;;;5060792;28;20229;-86
2022/02/24 01:07:05;;;;;;;11.98;5.20;;;2.40;1.00;;;;;;5040809;28;20247;-85
2022/02/24 01:09:31;;;;;;;11.88;5.82;;;2.40;1.00;;;;;;5059015;28;20236;-85
2022/02/24 01:11:58;;;;;;;12.23;6.18;;;2.50;1.00;;;;;;5060213;28;20228;-84
2022/02/24 01:14:25;;;;;;;16.63;6.13;;;2.50;1.00;;;;;;5058903;28;20221;-85
2022/02/24 01:16:52;;;;;;;9.25;5.50;;;2.50;1.00;;;;;;5059584;28;20316;-85
2022/02/24 01:19:20;;;;;;;10.20;5.80;;;2.50;1.00;;;;;;5056774;28;20225;-86
2022/02/24 01:21:46;;;;;;;8.02;5.68;;;2.50;1.00;;;;;;5067727;28;20213;-86
2022/02/24 01:24:13;;;;;;;10.00;5.90;;;2.50;1.00;;;;;;5077602;28;20229;-85
2022/02/24 01:26:41;;;;;;;10.90;5.75;;;2.50;1.00;;;;;;5041904;28;20240;-84
2022/02/24 01:29:10;;;;;;;8.32;6.15;;;2.50;1.00;;;;;;5055882;28;20225;-84
2022/02/24 01:31:37;;;;;;;10.85;5.45;;;2.40;1.00;;;;;;5072962;28;20221;-83
2022/02/24 01:34:04;;;;;;;10.05;6.03;;;2.40;1.00;;;;;;5063341;28;20232;-82
2022/02/24 01:36:32;;;;;;;10.43;5.78;;;2.40;1.00;;;;;;5078222;28;20231;-83
2022/02/24 01:39:01;;;;;;;11.13;6.10;;;2.30;1.00;;;;;;5078407;28;20286;-83
2022/02/24 01:41:28;;;;;;;9.88;5.93;;;2.30;1.00;;;;;;5076048;28;20240;-81
2022/02/24 01:43:55;;;;;;;8.95;5.47;;;2.30;1.00;;;;;;5073279;28;20747;-82
2022/02/24 01:46:22;;;;;;;11.70;6.25;;;2.20;1.00;;;;;;5075401;28;20394;-81
2022/02/24 01:48:48;;;;;;;9.63;5.93;;;2.20;1.00;;;;;;5034621;28;22512;-82
2022/02/24 01:51:15;;;;;;;10.25;5.50;;;2.20;1.00;;;;;;5050609;28;20222;-83
2022/02/24 01:53:43;;;;;;;8.40;5.93;;;2.10;1.00;;;;;;5036435;28;20230;-84
2022/02/24 01:56:11;;;;;;;8.73;5.28;;;2.20;1.00;;;;;;5057220;28;20217;-82
2022/02/24 01:58:38;;;;;;;6.25;5.10;;;2.10;1.00;;;;;;5055327;28;20225;-83
2022/02/24 02:01:05;;;;;;;10.07;6.05;;;2.20;1.00;;;;;;5050670;28;20308;-84
2022/02/24 02:03:32;;;;;;;9.10;5.75;;;2.20;1.00;;;;;;5058057;28;20221;-83
2022/02/24 02:05:58;;;;;;;8.75;6.00;;;2.20;1.00;;;;;;5051947;28;22223;-83
2022/02/24 02:08:27;;;;;;;7.35;5.78;;;2.20;1.00;;;;;;5060350;28;20267;-85
2022/02/24 02:10:55;;;;;;;8.05;5.07;;;2.20;1.00;;;;;;5065144;28;20224;-82
2022/02/24 02:13:22;;;;;;;15.50;6.15;;;2.30;1.00;;;;;;5052848;28;21260;-82
2022/02/24 02:15:48;;;;;;;11.00;6.20;;;2.20;1.00;;;;;;5052103;28;20303;-83
2022/02/24 02:18:15;;;;;;;6.57;5.15;;;2.20;1.00;;;;;;5041596;28;20255;-83
2022/02/24 02:20:43;;;;;;;8.52;5.80;;;2.20;1.00;;;;;;5079373;28;20375;-82
2022/02/24 02:23:10;;;;;;;6.85;5.57;;;2.10;1.00;;;;;;5080472;28;20221;-82
2022/02/24 02:25:40;;;;;;;7.97;5.82;;;2.10;1.00;;;;;;5066290;28;20768;-82
2022/02/24 02:28:06;;;;;;;7.82;4.93;;;2.10;1.00;;;;;;5055846;28;22510;-84
2022/02/24 02:30:33;;;;;;;8.75;6.18;;;2.00;1.00;;;;;;5056996;28;20245;-83
2022/02/24 02:33:00;;;;;;;7.47;5.55;;;2.00;1.00;;;;;;5055372;28;20220;-83
2022/02/24 02:35:27;;;;;;;7.63;6.15;;;1.90;1.00;;;;;;5050925;28;20245;-82
2022/02/24 02:37:57;;;;;;;8.27;5.53;;;1.90;1.00;;;;;;5050667;28;20221;-82
2022/02/24 02:40:24;;;;;;;9.48;6.00;;;1.80;1.00;;;;;;5054297;28;20260;-83
2022/02/24 02:42:51;;;;;;;8.38;5.20;;;1.80;1.00;;;;;;5054589;28;21123;-82
2022/02/24 02:45:19;;;;;;;12.43;6.30;;;1.80;1.00;;;;;;5059038;28;20237;-83
2022/02/24 02:47:46;;;;;;;7.90;5.10;;;1.70;1.00;;;;;;5050384;28;20564;-83
2022/02/24 02:50:14;;;;;;;8.77;5.63;;;1.80;1.00;;;;;;5039473;28;20594;-82
2022/02/24 02:52:41;;;;;;;13.98;6.15;;;1.80;1.00;;;;;;5051329;28;20284;-83
2022/02/24 02:55:11;;;;;;;11.63;5.88;;;1.70;1.00;;;;;;5059336;28;20241;-82
2022/02/24 02:57:39;;;;;;;9.60;5.90;;;1.70;1.00;;;;;;5064669;28;20225;-83
2022/02/24 03:00:08;;;;;;;7.78;5.07;;;1.80;1.00;;;;;;5071172;28;20261;-82
2022/02/24 03:02:35;;;;;;;10.98;6.07;;;1.80;1.00;;;;;;5081975;28;20279;-83
2022/02/24 03:05:02;;;;;;;6.85;5.20;;;1.80;1.00;;;;;;5085139;28;20217;-82
2022/02/24 03:07:29;;;;;;;9.27;5.30;;;1.80;1.00;;;;;;5086227;28;20235;-82
2022/02/24 03:09:55;;;;;;;7.13;5.85;;;1.80;1.00;;;;;;5080962;28;20256;-83
2022/02/24 03:12:23;;;;;;;10.52;5.72;;;1.80;1.00;;;;;;5084402;28;20281;-83
2022/02/24 03:14:50;;;;;;;8.88;4.85;;;1.80;1.00;;;;;;5080149;28;20291;-83
2022/02/24 03:17:17;;;;;;;7.40;4.68;;;1.80;1.00;;;;;;5051450;28;20632;-82
2022/02/24 03:19:44;;;;;;;9.35;5.32;;;1.80;1.00;;;;;;5052959;28;20236;-82
2022/02/24 03:22:13;;;;;;;9.63;5.40;;;1.80;1.00;;;;;;5054383;28;20232;-82
2022/02/24 03:24:40;;;;;;;8.85;5.78;;;1.80;1.00;;;;;;5051020;28;20293;-83
2022/02/24 03:27:07;;;;;;;7.18;4.97;;;1.80;1.00;;;;;;5055678;28;20248;-83
2022/02/24 03:29:35;;;;;;;7.72;5.25;;;1.80;1.00;;;;;;5049087;28;20229;-82
2022/02/24 03:32:03;;;;;;;8.00;5.63;;;1.80;1.00;;;;;;5051978;28;21226;-82
2022/02/24 03:34:31;;;;;;;6.65;4.30;;;1.80;1.00;;;;;;5044228;28;20316;-84
2022/02/24 03:36:58;;;;;;;11.82;5.25;;;1.80;1.00;;;;;;5047239;28;20301;-82
2022/02/24 03:39:26;;;;;;;10.52;5.50;;;1.90;1.00;;;;;;5046867;28;20744;-83
2022/02/24 03:41:53;;;;;;;7.70;4.47;;;1.90;1.00;;;;;;5049536;28;20225;-83
2022/02/24 03:44:20;;;;;;;10.68;5.40;;;1.90;1.00;;;;;;5049895;28;21115;-83
2022/02/24 03:46:49;;;;;;;10.38;4.68;;;1.90;1.00;;;;;;5052803;28;20229;-83
2022/02/24 03:49:16;;;;;;;6.90;4.93;;;1.90;1.00;;;;;;5045160;28;20465;-83
2022/02/24 03:51:43;;;;;;;7.97;4.72;;;1.90;1.00;;;;;;5049482;28;22865;-83
2022/02/24 03:54:10;;;;;;;11.45;5.35;;;1.90;1.00;;;;;;5064152;28;20217;-83
2022/02/24 03:56:37;;;;;;;6.93;4.93;;;1.90;1.00;;;;;;5079678;28;20223;-82
2022/02/24 03:59:04;;;;;;;7.28;5.13;;;1.90;1.00;;;;;;5077577;28;20240;-82
2022/02/24 04:01:31;;;;;;;10.15;4.80;;;1.90;1.00;;;;;;5072912;28;20217;-82
2022/02/24 04:03:59;;;;;;;8.35;4.32;;;1.90;1.00;;;;;;5053379;28;20225;-82
2022/02/24 04:06:26;;;;;;;8.15;4.85;;;1.90;1.00;;;;;;5046235;28;21541;-82
2022/02/24 04:08:52;;;;;;;7.28;5.05;;;1.90;1.00;;;;;;5055569;28;20235;-83
2022/02/24 04:11:19;;;;;;;5.68;4.50;;;1.90;1.00;;;;;;5045431;28;21108;-82
2022/02/24 04:13:46;;;;;;;9.98;4.80;;;1.90;1.00;;;;;;5079014;28;20241;-81
2022/02/24 04:16:13;;;;;;;9.07;4.50;;;1.80;1.00;;;;;;5081060;28;20234;-82
2022/02/24 04:18:39;;;;;;;7.80;5.30;;;1.90;1.00;;;;;;5078473;28;20204;-83
2022/02/24 04:21:07;;;;;;;11.10;5.05;;;1.90;1.00;;;;;;5067844;28;20830;-82
2022/02/24 04:23:34;;;;;;;8.82;4.60;;;1.90;1.00;;;;;;5063052;28;20255;-82
2022/02/24 04:26:01;;;;;;;10.65;4.05;;;1.80;1.00;;;;;;5051956;28;20328;-83
2022/02/24 04:28:28;;;;;;;10.45;5.28;;;1.90;1.00;;;;;;5055177;28;20296;-82
2022/02/24 04:30:54;;;;;;;7.35;4.30;;;1.90;1.00;;;;;;5052129;28;20229;-83
2022/02/24 04:33:21;;;;;;;6.78;4.50;;;1.90;1.00;;;;;;5048933;28;20317;-83
2022/02/24 04:35:48;;;;;;;7.63;4.32;;;2.00;1.00;;;;;;5052365;28;20303;-83
2022/02/24 04:38:16;;;;;;;10.40;4.88;;;2.00;1.00;;;;;;5051825;28;20224;-83
2022/02/24 04:40:43;;;;;;;6.13;3.55;;;2.00;1.00;;;;;;5048062;28;20232;-83
2022/02/24 04:43:10;;;;;;;6.40;4.63;;;2.00;1.00;;;;;;5053257;28;20648;-83
2022/02/24 04:45:37;;;;;;;8.30;4.60;;;2.00;1.00;;;;;;5049442;28;20328;-83
2022/02/24 04:48:04;;;;;;;7.68;4.50;;;2.00;1.00;;;;;;5052217;28;20240;-83
2022/02/24 04:50:31;;;;;;;6.68;4.18;;;2.00;1.00;;;;;;5057801;28;20704;-82
2022/02/24 04:52:58;;;;;;;6.88;3.90;;;2.10;1.00;;;;;;5047048;28;20228;-83
2022/02/24 04:55:26;;;;;;;6.00;3.63;;;2.10;1.00;;;;;;5050308;28;20221;-85
2022/02/24 04:57:53;;;;;;;8.10;4.22;;;2.10;1.00;;;;;;5051428;28;20233;-84
2022/02/24 05:00:20;;;;;;;6.82;3.92;;;2.10;1.00;;;;;;5057947;28;20280;-83
2022/02/24 05:02:47;;;;;;;7.95;4.15;;;2.20;1.00;;;;;;5042996;28;20738;-83
2022/02/24 05:05:14;;;;;;;6.15;4.05;;;2.20;1.00;;;;;;5054498;28;20225;-82
2022/02/24 05:07:41;;;;;;;7.38;4.18;;;2.20;1.00;;;;;;5039706;28;20244;-80
2022/02/24 05:10:09;;;;;;;8.32;4.65;;;2.20;1.00;;;;;;5047933;28;20635;-83
2022/02/24 05:12:38;;;;;;;7.10;4.63;;;2.20;1.00;;;;;;5034664;28;21004;-83
2022/02/24 05:15:05;;;;;;;6.25;5.65;;;2.20;1.00;;;;;;5053125;28;20225;-81
2022/02/24 05:17:33;;;;;;;10.10;5.25;;;2.20;1.00;;;;;;5057093;28;20237;-82
2022/02/24 05:20:00;;;;;;;7.10;4.75;;;2.20;1.00;;;;;;5030234;28;20237;-83
2022/02/24 05:22:27;;;;;;;7.60;6.15;;;2.20;1.00;;;;;;5050858;28;20320;-82
2022/02/24 05:24:53;;;;;;;7.55;5.50;;;2.30;1.00;;;;;;5046422;28;20244;-83
2022/02/24 05:27:20;;;;;;;9.25;4.78;;;2.30;1.00;;;;;;5050334;28;20237;-83
2022/02/24 05:29:49;;;;;;;9.65;5.78;;;2.30;1.00;;;;;;5051138;28;20233;-83
2022/02/24 05:32:15;;;;;;;8.65;4.78;;;2.30;1.00;;;;;;5060602;28;20216;-82
2022/02/24 05:34:42;;;;;;;7.85;5.32;;;2.30;1.00;;;;;;5061458;28;20241;-83
2022/02/24 05:37:09;;;;;;;10.93;5.57;;;2.20;1.00;;;;;;5059793;28;20252;-84
2022/02/24 05:39:36;;;;;;;8.88;5.28;;;2.20;1.00;;;;;;5054984;28;20330;-83
2022/02/24 05:42:02;;;;;;;10.75;6.75;;;2.20;1.00;;;;;;5059683;28;21573;-81
2022/02/24 05:44:32;;;;;;;11.05;5.22;;;2.20;1.00;;;;;;5040992;28;20696;-81
2022/02/24 05:47:00;;;;;;;8.35;5.32;;;2.20;1.00;;;;;;5072574;28;20228;-79
2022/02/24 05:49:27;;;;;;;6.88;4.40;;;2.30;1.00;;;;;;5069121;28;20236;-79
2022/02/24 05:51:54;;;;;;;10.45;5.80;;;2.20;1.00;;;;;;5059671;28;20236;-81
2022/02/24 05:54:20;;;;;;;6.28;5.43;;;2.20;1.00;;;;;;5063467;28;20232;-81
2022/02/24 05:56:47;;;;;;;10.40;5.57;;;2.20;1.00;;;;;;5053858;28;20381;-80
2022/02/24 05:59:14;;;;;;;8.48;5.15;;;2.30;1.00;;;;;;5056532;28;20237;-81
2022/02/24 06:01:41;;;;;;;9.05;5.07;;;2.30;1.00;;;;;;5055803;28;20224;-80
2022/02/24 06:04:09;;;;;;;9.75;5.75;;;2.30;1.00;;;;;;5057012;28;20289;-81
2022/02/24 06:06:36;;;;;;;8.27;5.78;;;2.40;1.00;;;;;;5054831;28;21089;-80
2022/02/24 06:09:03;;;;;;;7.30;4.70;;;2.50;1.00;;;;;;5056309;28;20296;-80
2022/02/24 06:11:30;;;;;;;10.98;5.88;;;2.60;1.00;;;;;;5057404;28;21063;-81
2022/02/24 06:13:56;;;;;;;7.20;5.60;;;2.60;1.00;;;;;;5037177;28;20229;-78
2022/02/24 06:16:23;;;;;;;6.03;5.07;;;2.60;1.00;;;;;;5056470;28;20225;-79
2022/02/24 06:18:50;;;;;;;9.25;5.50;;;2.60;1.00;;;;;;5054745;28;20225;-80
2022/02/24 06:21:18;;;;;;;7.95;5.32;;;2.70;1.00;;;;;;5062323;28;20700;-80
2022/02/24 06:23:45;;;;;;;10.95;5.88;;;2.70;1.00;;;;;;5034640;28;21626;-80
2022/02/24 06:26:12;;;;;;;8.60;5.07;;;2.70;1.00;;;;;;5057612;28;20404;-79
2022/02/24 06:28:39;;;;;;;8.02;5.20;;;2.80;1.00;;;;;;5057141;28;20270;-81
2022/02/24 06:31:05;;;;;;;12.05;6.05;;;2.90;1.00;;;;;;5057018;28;20229;-80
2022/02/24 06:33:33;;;;;;;7.03;4.85;;;2.90;1.00;;;;;;5045810;28;21210;-79
2022/02/24 06:36:00;;;;;;;7.28;5.10;;;2.80;1.00;;;;;;5037313;28;20236;-81
2022/02/24 06:38:28;;;;;;;7.88;5.57;;;2.90;1.00;;;;;;5063113;28;20272;-85
2022/02/24 06:40:55;;;;;;;6.70;4.63;;;2.90;1.00;;;;;;5082160;28;20222;-84
2022/02/24 06:43:23;;;;;;;5.40;4.90;;;3.00;1.00;;;;;;5091283;28;20296;-85
2022/02/24 06:45:51;;;;;;;8.68;5.40;;;3.00;1.00;;;;;;5085257;28;20213;-84
2022/02/24 06:48:20;;;;;;;12.07;5.72;;;3.10;1.00;;;;;;5084739;28;20233;-88
2022/02/24 06:50:55;;;;;;;8.30;5.53;;;3.10;1.00;;;;;;5077190;28;20267;-89
2022/02/24 06:53:25;;;;;;;9.20;6.00;;;3.10;1.00;;;;;;5057947;28;20243;-88
2022/02/24 06:55:59;;;;;;;6.93;4.43;;;3.20;1.00;;;;;;5044659;28;20242;-84
2022/02/24 06:58:26;;;;;;;12.40;5.35;;;3.20;1.00;;;;;;5053168;28;20240;-81
2022/02/24 07:00:55;;;;;;;10.38;5.60;;;3.30;1.00;;;;;;5035704;28;20343;-77
2022/02/24 07:03:21;;;;;;;9.23;5.60;;;3.30;1.00;;;;;;5057352;28;20241;-80
2022/02/24 07:05:48;;;;;;;7.95;5.55;;;3.30;1.00;;;;;;5058976;28;20233;-80
2022/02/24 07:08:15;;;;;;;6.93;4.95;;;3.40;1.00;;;;;;5049602;28;20241;-78
2022/02/24 07:10:42;;;;;;;7.55;4.95;;;3.50;1.00;;;;;;5067370;28;20226;-80
2022/02/24 07:13:10;;;;;;;9.57;4.90;;;3.50;1.00;;;;;;5062264;28;21716;-81
2022/02/24 07:15:37;;;;;;;7.07;5.10;;;3.60;1.00;;;;;;5044259;28;20251;-81
2022/02/24 07:18:04;;;;;;;8.07;5.80;;;3.70;1.00;;;;;;5062091;28;20275;-83
2022/02/24 07:20:31;;;;;;;6.47;5.15;;;3.80;1.00;;;;;;5055923;28;20225;-83
2022/02/24 07:23:00;;;;;;;7.05;5.05;;;3.90;1.00;;;;;;5059938;28;20217;-83
2022/02/24 07:25:26;;;;;;;12.75;5.05;;;4.00;1.00;;;;;;5040795;28;20229;-81
2022/02/24 07:27:53;;;;;;;10.18;5.35;;;4.10;1.00;;;;;;5060167;28;20237;-82
2022/02/24 07:30:22;;;;;;;7.20;5.20;;;4.10;1.00;;;;;;5057355;28;20228;-83
2022/02/24 07:32:49;;;;;;;6.72;5.03;;;4.10;1.00;;;;;;5074281;28;20236;-86
2022/02/24 07:35:18;;;;;;;8.23;4.80;;;4.10;1.00;;;;;;5073631;28;20280;-83
2022/02/24 07:37:45;;;;;;;8.80;4.80;;;4.10;1.00;;;;;;5064622;28;20229;-87
2022/02/24 07:40:12;;;;;;;7.93;4.75;;;4.10;1.00;;;;;;5082281;28;20229;-87
2022/02/24 07:42:40;;;;;;;5.30;4.45;;;4.10;1.00;;;;;;5082209;28;20224;-82
2022/02/24 07:45:08;;;;;;;7.90;4.80;;;4.00;1.00;;;;;;5057310;28;20252;-82
2022/02/24 07:47:38;;;;;;;8.38;7.03;;;4.10;1.00;;;;;;5061409;28;20747;-85
2022/02/24 07:50:06;;;;;;;9.75;6.55;;;4.10;1.00;;;;;;5033138;28;20926;-80
2022/02/24 07:52:33;;;;;;;13.50;8.02;;;4.20;1.00;;;;;;5039287;28;20224;-83
2022/02/24 07:54:59;;;;;;;10.80;7.07;;;4.30;1.00;;;;;;5057009;28;20225;-83
2022/02/24 07:57:26;;;;;;;8.90;7.20;;;4.40;1.00;;;;;;5054305;28;21041;-82
2022/02/24 07:59:53;;;;;;;9.55;7.57;;;4.50;1.00;;;;;;5059032;28;20248;-82
2022/02/24 08:02:20;;;;;;;8.70;6.97;;;4.60;1.00;;;;;;5054218;28;20778;-82
2022/02/24 08:04:48;;;;;;;14.30;9.95;;;4.70;1.00;;;;;;5048606;28;21726;-80
2022/02/24 08:07:15;;;;;;;14.48;12.05;;;4.70;1.00;;;;;;5052975;28;20324;-81
2022/02/24 08:09:41;;;;;;;23.50;17.08;;;4.80;1.00;;;;;;5035376;28;20327;-81
2022/02/24 08:14:54;;;;;;;22.67;17.23;;;5.10;1.00;;;;;;5052920;28;21130;-82
2022/02/24 08:17:21;;;;;;;19.48;14.73;;;5.20;1.00;;;;;;5063765;28;20275;-83
2022/02/24 08:19:49;;;;;;;17.33;10.82;;;5.40;1.00;;;;;;5060364;28;20228;-82
2022/02/24 08:22:18;;;;;;;9.15;7.35;;;5.60;1.00;;;;;;5052569;28;20227;-82
2022/02/24 08:24:51;;;;;;;10.40;5.82;;;5.60;1.00;;;;;;5052371;28;20236;-82
2022/02/24 08:27:24;;;;;;;9.70;5.45;;;5.80;1.00;;;;;;5058298;28;20228;-80
2022/02/24 08:29:53;;;;;;;6.55;4.28;;;5.90;1.00;;;;;;5049338;28;20284;-81
2022/02/24 08:32:21;;;;;;;5.38;3.97;;;6.00;1.00;;;;;;5052577;28;22500;-81
2022/02/24 08:34:51;;;;;;;6.65;4.38;;;6.00;1.00;;;;;;5055978;28;20318;-81
2022/02/24 08:37:21;;;;;;;6.50;4.15;;;6.10;1.00;;;;;;5058291;28;20232;-82
2022/02/24 08:39:51;;;;;;;7.90;3.90;;;6.30;1.00;;;;;;5042153;28;20262;-81
2022/02/24 08:42:18;;;;;;;5.30;3.92;;;6.50;1.00;;;;;;5062071;28;20255;-81
2022/02/24 08:44:46;;;;;;;6.00;3.20;;;6.80;1.00;;;;;;5065098;28;20568;-81
2022/02/24 08:47:13;;;;;;;4.38;3.60;;;7.00;1.00;;;;;;5038852;28;20224;-81
2022/02/24 08:49:40;;;;;;;4.38;3.55;;;7.10;1.00;;;;;;5052244;28;20319;-82
2022/02/24 08:52:08;;;;;;;6.47;3.33;;;7.10;1.00;;;;;;5035663;28;20226;-80
2022/02/24 08:54:35;;;;;;;8.82;4.18;;;7.30;1.00;;;;;;5047139;28;20222;-81
2022/02/24 08:57:03;;;;;;;7.70;3.50;;;7.40;1.00;;;;;;5048433;28;20322;-80
2022/02/24 09:00:18;;;;;;;5.97;3.35;;;7.60;1.00;;;;;;5051557;28;20321;-87
2022/02/24 09:10:50;;;;;;;6.90;3.28;;;8.50;1.00;;;;;;5099117;22;20255;-87
2022/02/24 09:15:53;;;;;;;5.63;3.40;;;8.90;1.00;;;;;;5526925;22;20247;-86
2022/02/24 09:18:22;;;;;;;5.20;3.03;;;9.70;1.00;;;;;;5033173;28;20492;-87
2022/02/24 09:20:51;;;;;;;8.90;3.60;;;10.70;1.00;;;;;;5044275;28;21015;-88
2022/02/24 09:23:31;;;;;;;5.87;2.77;;;11.00;1.00;;;;;;5040166;28;20431;-88
2022/02/24 09:26:08;;;;;;;5.93;3.00;;;10.50;1.00;;;;;;5015637;28;20465;-86
2022/02/24 09:31:10;;;;;;;5.17;3.23;;;10.00;1.00;;;;;;5117787;22;20416;-87
2022/02/24 09:33:45;;;;;;;9.97;3.97;;;10.10;1.00;;;;;;5065176;28;20488;-87
2022/02/24 09:36:12;;;;;;;3.90;3.30;;;10.20;1.00;;;;;;5043532;28;20426;-86
2022/02/24 09:38:42;;;;;;;8.13;3.73;;;10.30;1.00;;;;;;5045142;28;20590;-89
2022/02/24 09:41:11;;;;;;;4.03;3.13;;;10.20;1.00;;;;;;5041936;28;20440;-88
2022/02/24 09:43:47;;;;;;;5.40;2.97;;;10.80;1.00;;;;;;5039193;28;20456;-87
2022/02/24 09:46:19;;;;;;;7.37;4.03;;;11.10;1.00;;;;;;5045245;28;24775;-89
2022/02/24 09:48:47;;;;;;;6.03;3.20;;;11.50;1.00;;;;;;5024597;28;20468;-87
2022/02/24 09:54:02;;;;;;;5.13;2.97;;;11.80;1.00;;;;;;5043975;28;20416;-86
2022/02/24 09:56:34;;;;;;;7.07;3.43;;;11.50;1.00;;;;;;5058776;28;20586;-88
2022/02/24 09:59:06;;;;;;;4.87;2.93;;;11.10;1.00;;;;;;5041524;28;20449;-87
2022/02/24 10:01:35;;;;;;;5.07;3.20;;;10.70;1.00;;;;;;5016424;28;20409;-86
2022/02/24 10:04:03;;;;;;;8.50;3.70;;;10.60;1.00;;;;;;5042656;28;20426;-85
2022/02/24 10:06:48;;;;;;;7.57;3.93;;;10.70;1.00;;;;;;5036635;28;20472;-88
2022/02/24 10:09:21;;;;;;;4.13;2.73;;;10.70;1.00;;;;;;5034303;28;21689;-89
2022/02/24 10:12:21;;;;;;;4.83;3.63;;;11.00;1.00;;;;;;5024064;28;21489;-86
2022/02/24 10:18:19;;;;;;;5.37;3.57;;;11.50;1.00;;;;;;5029204;28;20419;-89
2022/02/24 10:20:52;;;;;;;6.00;3.50;;;11.20;1.00;;;;;;5044439;28;20561;-87
2022/02/24 10:23:21;;;;;;;3.80;3.40;;;10.80;1.00;;;;;;5032113;28;20423;-87
2022/02/24 10:26:18;;;;;;;;;;;;;;;;;;;;;
2022/02/24 10:29:23;;;;;;;5.10;3.40;;;10.50;1.00;;;;;;5039908;28;20422;-87
2022/02/24 10:31:51;;;;;;;5.70;3.47;;;10.30;1.00;;;;;;5014020;28;21658;-87
2022/02/24 10:34:19;;;;;;;5.23;3.77;;;10.20;1.00;;;;;;5017237;28;20499;-86
2022/02/24 10:36:50;;;;;;;5.53;3.30;;;10.30;1.00;;;;;;5034223;28;20414;-85
2022/02/24 10:39:22;;;;;;;5.97;3.60;;;10.50;1.00;;;;;;5026641;28;20492;-87
2022/02/24 10:41:50;;;;;;;8.20;4.27;;;10.40;1.00;;;;;;5021847;28;20654;-86
2022/02/24 10:44:21;;;;;;;5.47;3.90;;;10.40;1.00;;;;;;5022566;28;20484;-81
2022/02/24 10:46:51;;;;;;;5.73;3.17;;;10.50;1.00;;;;;;5028513;28;20437;-84
2022/02/24 10:49:30;;;;;;;6.10;3.30;;;10.50;1.00;;;;;;5026063;28;20410;-85
2022/02/24 10:52:12;;;;;;;6.17;2.90;;;10.70;1.00;;;;;;5050901;28;20767;-81
2022/02/24 10:54:39;;;;;;;7.30;3.83;;;10.90;1.00;;;;;;5054760;28;20522;-81
2022/02/24 10:57:16;;;;;;;7.10;3.30;;;10.90;1.00;;;;;;5043414;28;20413;-81
2022/02/24 10:59:44;;;;;;;5.20;4.23;;;10.60;1.00;;;;;;5036359;28;20426;-82
2022/02/24 11:02:11;;;;;;;7.10;3.77;;;10.50;1.00;;;;;;5016849;28;20491;-82
2022/02/24 11:04:40;;;;;;;4.63;3.30;;;10.40;1.00;;;;;;5020535;28;20457;-82
2022/02/24 11:07:07;;;;;;;6.37;4.60;;;10.40;1.00;;;;;;5027897;28;20450;-81
2022/02/24 11:09:35;;;;;;;4.87;3.53;;;10.30;1.00;;;;;;5030183;28;20476;-83
2022/02/24 11:12:04;;;;;;;4.27;3.57;;;10.30;1.00;;;;;;4998894;28;20438;-82
2022/02/24 11:14:31;;;;;;;4.27;3.23;;;10.20;1.00;;;;;;4994012;28;20523;-82
2022/02/24 11:17:04;;;;;;;6.40;3.50;;;10.00;1.00;;;;;;5014412;28;20762;-81
2022/02/24 11:19:32;;;;;;;3.70;3.10;;;10.00;1.00;;;;;;5014845;28;20413;-81
2022/02/24 11:22:00;;;;;;;5.50;3.23;;;10.00;1.00;;;;;;5012428;28;20432;-84
2022/02/24 11:24:27;;;;;;;6.75;3.58;;;10.00;1.00;;;;;;5001004;28;20417;-84
2022/02/24 11:26:58;;;;;;;6.60;3.93;;;9.90;1.00;;;;;;5032690;28;20229;-86
2022/02/24 11:29:33;;;;;;;7.83;4.03;;;9.90;1.00;;;;;;5033024;28;20450;-84
2022/02/24 11:32:09;;;;;;;4.37;3.50;;;9.90;1.00;;;;;;5024555;28;20494;-85
2022/02/24 11:34:59;;;;;;;5.03;3.00;;;9.90;1.00;;;;;;5027937;28;20456;-84
2022/02/24 11:37:36;;;;;;;6.20;3.43;;;9.80;1.00;;;;;;5026599;28;20436;-84
2022/02/24 11:40:06;;;;;;;9.37;4.53;;;9.60;1.00;;;;;;5032064;28;20931;-83
2022/02/24 11:42:35;;;;;;;5.77;3.23;;;9.70;1.00;;;;;;5023127;28;20461;-83
2022/02/24 11:45:02;;;;;;;9.70;7.40;;;9.70;1.00;;;;;;5020251;28;20435;-85
2022/02/24 11:47:50;;;;;;;5.00;3.67;;;9.70;1.00;;;;;;5019995;28;20541;-83
2022/02/24 11:50:30;;;;;;;5.40;3.80;;;9.80;1.00;;;;;;5023785;28;20473;-85
2022/02/24 11:52:57;;;;;;;5.40;4.07;;;10.00;1.00;;;;;;5033581;28;20791;-86
2022/02/24 11:55:50;;;;;;;6.80;3.90;;;10.00;1.00;;;;;;5026723;28;20670;-86
2022/02/24 11:58:52;;;;;;;4.93;3.73;;;10.00;1.00;;;;;;5024284;28;20484;-85
2022/02/24 12:01:43;;;;;;;6.50;4.23;;;9.90;1.00;;;;;;5014613;28;20486;-81
2022/02/24 12:04:25;;;;;;;9.60;4.70;;;9.90;1.00;;;;;;5008220;28;21288;-80
2022/02/24 12:06:56;;;;;;;7.70;3.93;;;10.10;1.00;;;;;;5010790;28;20515;-81
2022/02/24 12:09:28;;;;;;;8.43;3.67;;;10.20;1.00;;;;;;5020690;28;20572;-80
2022/02/24 12:11:57;;;;;;;5.40;3.60;;;10.20;1.00;;;;;;5018694;28;20424;-81
2022/02/24 12:14:43;;;;;;;5.90;3.80;;;10.20;1.00;;;;;;5026180;28;20486;-80
2022/02/24 12:17:13;;;;;;;7.25;3.35;;;10.20;1.00;;;;;;5024434;28;20441;-79
2022/02/24 12:19:43;;;;;;;4.50;3.30;;;10.30;1.00;;;;;;5010813;28;20226;-80
2022/02/24 12:22:23;;;;;;;6.63;4.53;;;10.20;1.00;;;;;;5018736;28;20412;-80
2022/02/24 12:24:53;;;;;;;5.90;3.53;;;10.20;1.00;;;;;;5013491;28;20553;-80
2022/02/24 12:27:29;;;;;;;4.53;3.63;;;10.20;1.00;;;;;;5012696;28;20425;-81
2022/02/24 12:29:59;;;;;;;4.33;2.83;;;10.00;1.00;;;;;;5003713;28;20493;-81
2022/02/24 12:32:39;;;;;;;5.37;3.73;;;10.00;1.00;;;;;;5014823;28;21285;-84
2022/02/24 12:35:06;;;;;;;6.70;4.23;;;10.00;1.00;;;;;;5006077;28;21075;-82
2022/02/24 12:37:35;;;;;;;5.60;2.80;;;10.00;1.00;;;;;;5009088;28;20465;-82
2022/02/24 12:40:02;;;;;;;5.03;3.60;;;10.10;1.00;;;;;;5005277;28;20493;-82
2022/02/24 12:42:30;;;;;;;7.67;3.23;;;10.10;1.00;;;;;;5017432;28;20420;-81
2022/02/24 12:44:57;;;;;;;3.40;3.00;;;10.20;1.00;;;;;;5024666;28;20951;-80
2022/02/24 12:47:24;;;;;;;5.93;3.70;;;10.20;1.00;;;;;;5030205;28;20423;-80
2022/02/24 12:49:54;;;;;;;8.03;3.43;;;10.20;1.00;;;;;;5020551;28;20438;-80
2022/02/24 12:52:21;;;;;;;5.20;3.20;;;10.20;1.00;;;;;;5018223;28;21269;-80
2022/02/24 12:54:49;;;;;;;7.87;4.17;;;10.30;1.00;;;;;;5009337;28;20579;-81
2022/02/24 12:57:16;;;;;;;12.60;4.60;;;10.30;1.00;;;;;;5013777;28;20461;-81
2022/02/24 12:59:44;;;;;;;5.13;3.27;;;10.30;1.00;;;;;;5009280;28;20543;-81
2022/02/24 13:02:12;;;;;;;7.93;3.13;;;10.40;1.00;;;;;;5012915;28;20821;-83
2022/02/24 13:04:39;;;;;;;8.27;3.30;;;10.40;1.00;;;;;;5029822;28;20576;-80
2022/02/24 13:07:07;;;;;;;4.13;3.00;;;10.30;1.00;;;;;;5017340;28;21707;-86
2022/02/24 13:09:46;;;;;;;7.40;2.53;;;10.40;1.00;;;;;;5017657;28;20607;-86
2022/02/24 13:12:16;;;;;;;6.83;2.90;;;10.50;1.00;;;;;;5024134;28;20437;-85
2022/02/24 13:14:46;;;;;;;5.50;2.87;;;10.50;1.00;;;;;;5019589;28;20433;-85
2022/02/24 13:17:21;;;;;;;3.87;2.87;;;10.50;1.00;;;;;;5038368;28;20417;-85
2022/02/24 13:19:54;;;;;;;5.87;2.67;;;10.50;1.00;;;;;;5032375;28;21077;-86
2022/02/24 13:22:23;;;;;;;4.20;2.30;;;10.40;1.00;;;;;;5031865;28;20516;-89
2022/02/24 13:24:50;;;;;;;5.00;2.63;;;10.50;1.00;;;;;;5027245;28;20471;-80
2022/02/24 13:27:19;;;;;;;4.97;2.80;;;10.60;1.00;;;;;;5025145;28;20673;-82
2022/02/24 13:29:49;;;;;;;5.17;2.80;;;10.70;1.00;;;;;;5015463;28;20481;-81
2022/02/24 13:32:17;;;;;;;5.87;2.90;;;11.00;1.00;;;;;;5012596;28;20453;-82
2022/02/24 13:34:45;;;;;;;5.77;3.10;;;11.20;1.00;;;;;;5020564;28;20464;-81